Time;durP1;ratioP1;P1;durP2;ratioP2;P2;SDS_P1;SDS_P2;PMS_P1;PMS_P2;Temp;Humidity;BMP_temperature;BMP_pressure;BME280_temperature;BME280_humidity;BME280_pressure;Samples;Min_cycle;Max_cycle;Signal;HPM_P1;HPM_P2
2023/04/15 00:45:58;;;;;;;4.43;2.90;;;;;;;;;;13053074;22;20369;-85
2023/04/15 00:51:00;;;;;;;3.73;2.97;;;;;;;;;;13045042;22;20369;-85
2023/04/15 00:56:02;;;;;;;4.43;2.95;;;;;;;;;;13044732;22;20360;-85
2023/04/15 01:01:05;;;;;;;4.57;3.10;;;;;;;;;;13045711;22;20442;-85
2023/04/15 01:06:08;;;;;;;4.70;3.03;;;;;;;;;;13044991;22;20368;-85
2023/04/15 01:11:12;;;;;;;4.72;3.30;;;;;;;;;;13043937;22;20440;-85
2023/04/15 01:16:16;;;;;;;4.78;3.10;;;;;;;;;;13043738;22;20768;-85
2023/04/15 01:21:18;;;;;;;3.97;2.88;;;;;;;;;;13037947;22;20377;-85
2023/04/15 01:26:22;;;;;;;3.20;2.77;;;;;;;;;;13043197;22;20423;-85
2023/04/15 01:31:24;;;;;;;4.00;2.78;;;;;;;;;;13043429;22;20361;-86
2023/04/15 01:36:26;;;;;;;3.43;2.50;;;;;;;;;;13042902;22;20357;-86
2023/04/15 01:41:29;;;;;;;2.72;2.50;;;;;;;;;;13043708;22;20384;-85
2023/04/15 01:46:31;;;;;;;2.72;2.38;;;;;;;;;;13044162;22;20363;-85
2023/04/15 01:51:33;;;;;;;3.00;2.55;;;;;;;;;;13038998;22;20913;-85
2023/04/15 01:56:36;;;;;;;3.27;2.23;;;;;;;;;;13043170;22;20464;-85
2023/04/15 02:01:38;;;;;;;4.10;2.40;;;;;;;;;;13042405;22;20384;-85
2023/04/15 02:06:40;;;;;;;2.80;2.10;;;;;;;;;;13042553;22;20353;-86
2023/04/15 02:11:43;;;;;;;3.83;2.40;;;;;;;;;;13042113;22;20364;-86
2023/04/15 02:16:45;;;;;;;2.45;2.20;;;;;;;;;;13036369;22;20602;-85
2023/04/15 02:21:47;;;;;;;2.60;2.00;;;;;;;;;;13039101;22;20376;-85
2023/04/15 02:26:50;;;;;;;2.40;1.93;;;;;;;;;;13038825;22;20365;-85
2023/04/15 02:31:52;;;;;;;2.93;2.10;;;;;;;;;;13041657;22;20422;-85
2023/04/15 02:36:56;;;;;;;1.80;1.58;;;;;;;;;;13046618;22;20394;-85
2023/04/15 02:42:00;;;;;;;2.58;2.10;;;;;;;;;;13047016;22;20380;-86
2023/04/15 02:47:03;;;;;;;2.23;1.77;;;;;;;;;;13047448;22;20385;-85
2023/04/15 02:52:05;;;;;;;1.98;1.73;;;;;;;;;;13047189;22;20423;-85
2023/04/15 02:57:10;;;;;;;3.13;1.80;;;;;;;;;;13047024;22;20642;-86
2023/04/15 03:02:12;;;;;;;2.05;1.85;;;;;;;;;;13045463;22;20385;-84
2023/04/15 03:07:14;;;;;;;2.95;2.00;;;;;;;;;;13045877;22;20452;-85
2023/04/15 03:12:17;;;;;;;2.47;2.10;;;;;;;;;;13045145;22;20361;-85
2023/04/15 03:17:19;;;;;;;3.00;2.20;;;;;;;;;;13045237;22;20422;-85
2023/04/15 03:22:21;;;;;;;1.98;1.80;;;;;;;;;;13046145;22;20391;-85
2023/04/15 03:27:25;;;;;;;2.00;1.80;;;;;;;;;;13045704;22;20365;-85
2023/04/15 03:32:26;;;;;;;2.43;2.03;;;;;;;;;;13046101;22;20689;-85
2023/04/15 03:37:28;;;;;;;3.00;2.22;;;;;;;;;;13045330;22;20415;-86
2023/04/15 03:42:32;;;;;;;3.63;2.50;;;;;;;;;;13044635;22;20399;-86
2023/04/15 03:47:34;;;;;;;2.65;2.03;;;;;;;;;;13046213;22;20364;-85
2023/04/15 03:52:35;;;;;;;3.40;2.20;;;;;;;;;;13044601;22;20859;-85
2023/04/15 03:57:39;;;;;;;4.00;2.47;;;;;;;;;;13044239;22;20398;-85
2023/04/15 04:02:41;;;;;;;4.43;2.77;;;;;;;;;;13044261;22;20473;-85
2023/04/15 04:07:43;;;;;;;3.55;2.70;;;;;;;;;;13044684;22;20372;-85
2023/04/15 04:12:46;;;;;;;2.97;2.50;;;;;;;;;;13046059;22;20419;-85
2023/04/15 04:17:48;;;;;;;4.22;2.60;;;;;;;;;;13045548;22;20441;-85
2023/04/15 04:22:50;;;;;;;3.83;2.90;;;;;;;;;;13043363;22;20377;-86
2023/04/15 04:27:54;;;;;;;4.65;3.03;;;;;;;;;;13045917;22;20368;-86
2023/04/15 04:32:55;;;;;;;4.03;2.72;;;;;;;;;;13042155;22;20361;-86
2023/04/15 04:37:57;;;;;;;3.88;2.97;;;;;;;;;;13043177;22;20695;-85
2023/04/15 04:43:00;;;;;;;4.95;3.30;;;;;;;;;;13043841;22;20387;-85
2023/04/15 04:48:05;;;;;;;5.15;3.22;;;;;;;;;;13043864;22;20599;-85
2023/04/15 04:53:07;;;;;;;4.07;3.25;;;;;;;;;;13043980;22;20353;-85
2023/04/15 04:58:11;;;;;;;3.63;3.10;;;;;;;;;;13043957;22;20394;-85
2023/04/15 05:03:13;;;;;;;5.78;3.50;;;;;;;;;;13043210;22;20379;-85
2023/04/15 05:08:15;;;;;;;5.03;3.40;;;;;;;;;;13043354;22;20428;-85
2023/04/15 05:13:20;;;;;;;7.13;3.70;;;;;;;;;;13042168;22;20361;-85
2023/04/15 05:18:22;;;;;;;4.97;3.78;;;;;;;;;;13038967;22;20357;-86
2023/04/15 05:23:24;;;;;;;5.20;3.80;;;;;;;;;;13038332;22;20396;-85
2023/04/15 05:28:27;;;;;;;5.00;3.08;;;;;;;;;;13039942;22;20726;-86
2023/04/15 05:33:29;;;;;;;5.65;3.85;;;;;;;;;;13037300;22;20361;-85
2023/04/15 05:38:31;;;;;;;5.30;3.90;;;;;;;;;;13034890;22;20422;-84
2023/04/15 05:43:34;;;;;;;4.33;3.63;;;;;;;;;;13041073;22;20381;-86
2023/04/15 05:48:36;;;;;;;5.80;4.30;;;;;;;;;;13036945;22;20388;-85
2023/04/15 05:53:39;;;;;;;5.97;4.10;;;;;;;;;;13043906;22;20412;-83
2023/04/15 05:58:42;;;;;;;5.82;4.47;;;;;;;;;;13040067;22;20385;-84
2023/04/15 06:03:44;;;;;;;5.97;4.57;;;;;;;;;;13041819;22;20752;-85
2023/04/15 06:08:46;;;;;;;6.43;4.40;;;;;;;;;;13041712;22;20368;-83
2023/04/15 06:13:49;;;;;;;6.50;4.57;;;;;;;;;;13041082;22;20357;-83
2023/04/15 06:18:51;;;;;;;7.80;4.70;;;;;;;;;;13043266;22;20369;-83
2023/04/15 06:23:53;;;;;;;7.75;5.13;;;;;;;;;;13042145;22;20407;-85
2023/04/15 06:28:57;;;;;;;6.63;5.25;;;;;;;;;;13043660;22;20368;-85
2023/04/15 06:33:58;;;;;;;7.70;5.20;;;;;;;;;;13042102;22;20361;-85
2023/04/15 06:39:01;;;;;;;8.70;5.10;;;;;;;;;;13041027;22;20736;-85
2023/04/15 06:44:05;;;;;;;7.47;4.47;;;;;;;;;;13042644;22;20442;-85
2023/04/15 06:49:07;;;;;;;6.47;4.75;;;;;;;;;;13041829;22;20364;-85
2023/04/15 06:54:08;;;;;;;6.50;4.60;;;;;;;;;;13042513;22;20352;-85
2023/04/15 06:59:13;;;;;;;5.63;4.22;;;;;;;;;;13042764;22;20775;-85
2023/04/15 07:04:14;;;;;;;3.55;2.85;;;;;;;;;;13041273;22;20876;-85
2023/04/15 07:09:17;;;;;;;6.28;3.17;;;;;;;;;;13041770;22;20381;-83
2023/04/15 07:14:20;;;;;;;4.28;2.83;;;;;;;;;;13041331;22;20357;-83
2023/04/15 07:19:22;;;;;;;3.63;2.78;;;;;;;;;;13043595;22;20360;-83
2023/04/15 07:24:25;;;;;;;4.47;3.30;;;;;;;;;;13044565;22;20455;-82
2023/04/15 07:29:28;;;;;;;4.32;3.50;;;;;;;;;;13046859;22;20874;-86
2023/04/15 07:34:30;;;;;;;4.63;2.80;;;;;;;;;;13045205;22;20365;-84
2023/04/15 07:39:32;;;;;;;3.00;2.70;;;;;;;;;;13045085;22;20744;-86
2023/04/15 07:44:35;;;;;;;3.10;2.80;;;;;;;;;;13043937;22;20439;-86
2023/04/15 07:49:38;;;;;;;4.30;3.05;;;;;;;;;;13039965;22;20365;-86
2023/04/15 07:54:39;;;;;;;7.18;2.97;;;;;;;;;;13035530;22;20360;-86
2023/04/15 07:59:43;;;;;;;3.10;2.67;;;;;;;;;;13037884;22;20424;-86
2023/04/15 08:04:45;;;;;;;3.65;2.95;;;;;;;;;;13039286;22;20708;-86
2023/04/15 08:09:47;;;;;;;5.10;3.00;;;;;;;;;;13035990;22;20828;-85
2023/04/15 08:14:51;;;;;;;5.95;3.45;;;;;;;;;;13035906;22;20401;-86
2023/04/15 08:19:53;;;;;;;7.00;2.80;;;;;;;;;;13037667;22;20915;-84
2023/04/15 08:24:54;;;;;;;5.07;3.15;;;;;;;;;;13036061;22;20381;-81
2023/04/15 08:29:58;;;;;;;6.67;4.00;;;;;;;;;;13034410;22;20436;-81
2023/04/15 08:35:00;;;;;;;7.40;4.30;;;;;;;;;;13041304;22;20369;-85
2023/04/15 08:40:02;;;;;;;5.17;3.40;;;;;;;;;;13037015;22;20371;-85
2023/04/15 08:45:09;;;;;;;4.72;3.50;;;;;;;;;;13038846;22;20415;-85
2023/04/15 08:50:11;;;;;;;8.07;3.53;;;;;;;;;;13042123;22;20353;-84
2023/04/15 08:55:14;;;;;;;7.90;3.87;;;;;;;;;;13039499;22;20915;-84
2023/04/15 09:00:18;;;;;;;4.47;3.33;;;;;;;;;;13042456;22;20369;-84
2023/04/15 09:05:20;;;;;;;3.47;3.17;;;;;;;;;;13042572;22;20454;-84
2023/04/15 09:10:22;;;;;;;4.80;3.40;;;;;;;;;;13041645;22;20372;-84
2023/04/15 09:15:28;;;;;;;3.92;3.10;;;;;;;;;;13040689;22;20364;-84
2023/04/15 09:20:30;;;;;;;4.45;3.42;;;;;;;;;;13041677;22;20369;-84
2023/04/15 09:25:32;;;;;;;4.47;3.60;;;;;;;;;;13040154;22;21048;-84
2023/04/15 09:30:35;;;;;;;4.30;3.23;;;;;;;;;;13043059;22;20432;-85
2023/04/15 09:35:37;;;;;;;5.30;4.32;;;;;;;;;;13042364;22;20357;-85
2023/04/15 09:40:41;;;;;;;3.90;2.92;;;;;;;;;;13041067;22;20356;-84
2023/04/15 09:45:49;;;;;;;5.15;3.50;;;;;;;;;;13041437;22;20831;-78
2023/04/15 09:50:52;;;;;;;5.72;3.25;;;;;;;;;;13038880;22;20367;-78
2023/04/15 09:55:55;;;;;;;4.83;3.30;;;;;;;;;;13039842;22;20881;-77
2023/04/15 10:01:00;;;;;;;5.47;3.60;;;;;;;;;;13039865;22;20361;-85
2023/04/15 10:06:04;;;;;;;4.57;3.08;;;;;;;;;;13039611;22;20442;-86
2023/04/15 10:11:06;;;;;;;3.63;3.20;;;;;;;;;;13040566;22;20361;-85
2023/04/15 10:16:12;;;;;;;3.83;3.28;;;;;;;;;;13039861;22;20365;-84
2023/04/15 10:21:17;;;;;;;4.17;3.20;;;;;;;;;;13039829;22;20690;-84
2023/04/15 10:26:19;;;;;;;5.20;3.20;;;;;;;;;;13039559;22;20472;-84
2023/04/15 10:31:23;;;;;;;3.72;2.80;;;;;;;;;;13042628;22;20384;-84
2023/04/15 10:36:26;;;;;;;3.47;2.92;;;;;;;;;;13042513;22;20361;-84
2023/04/15 10:41:32;;;;;;;4.63;2.70;;;;;;;;;;13040052;22;20361;-84
2023/04/15 10:46:46;;;;;;;3.92;2.67;;;;;;;;;;13039847;22;20380;-84
2023/04/15 10:51:57;;;;;;;4.18;2.50;;;;;;;;;;13040797;22;20418;-84
2023/04/15 10:57:09;;;;;;;4.90;3.25;;;;;;;;;;13045603;22;20697;-84
2023/04/15 11:02:14;;;;;;;4.27;2.97;;;;;;;;;;13043339;22;20415;-83
2023/04/15 11:07:16;;;;;;;5.38;2.55;;;;;;;;;;13039969;22;20391;-81
2023/04/15 11:12:19;;;;;;;4.60;2.93;;;;;;;;;;13038008;22;20422;-84
2023/04/15 11:17:28;;;;;;;2.85;2.33;;;;;;;;;;13038804;22;20380;-82
2023/04/15 11:22:30;;;;;;;3.25;2.10;;;;;;;;;;13037581;22;20388;-82
2023/04/15 11:27:32;;;;;;;2.30;2.00;;;;;;;;;;13035151;22;20434;-83
2023/04/15 11:32:42;;;;;;;3.92;1.90;;;;;;;;;;13038059;22;20377;-83
2023/04/15 11:37:45;;;;;;;4.45;2.30;;;;;;;;;;13038007;22;20837;-84
2023/04/15 11:42:47;;;;;;;4.17;2.30;;;;;;;;;;13035367;22;20380;-84
2023/04/15 11:47:50;;;;;;;4.90;3.00;;;;;;;;;;13035856;22;20449;-84
2023/04/15 11:52:56;;;;;;;3.53;2.63;;;;;;;;;;13035808;22;20464;-83
2023/04/15 11:58:12;;;;;;;3.17;2.40;;;;;;;;;;13035020;22;20408;-84
2023/04/15 12:03:18;;;;;;;5.03;2.23;;;;;;;;;;13035433;22;20431;-83
2023/04/15 12:08:23;;;;;;;3.30;2.27;;;;;;;;;;13032668;22;20377;-84
2023/04/15 12:13:24;;;;;;;2.65;1.95;;;;;;;;;;13032812;22;20367;-84
2023/04/15 12:18:28;;;;;;;2.23;1.90;;;;;;;;;;13031010;22;20410;-84
2023/04/15 12:23:30;;;;;;;1.90;1.70;;;;;;;;;;13034102;22;20740;-84
2023/04/15 12:28:32;;;;;;;2.73;1.60;;;;;;;;;;13032391;22;20376;-84
2023/04/15 12:33:35;;;;;;;2.95;2.00;;;;;;;;;;13032829;22;20747;-84
2023/04/15 12:38:37;;;;;;;2.70;1.80;;;;;;;;;;13043238;22;20395;-85
2023/04/15 12:43:39;;;;;;;1.95;1.80;;;;;;;;;;13040949;22;20380;-82
2023/04/15 12:48:42;;;;;;;3.17;1.70;;;;;;;;;;13042178;22;20361;-81
2023/04/15 12:53:44;;;;;;;1.77;1.30;;;;;;;;;;13044329;22;20357;-81
2023/04/15 12:58:46;;;;;;;3.57;1.60;;;;;;;;;;13042311;22;20745;-81
2023/04/15 13:03:50;;;;;;;3.25;1.50;;;;;;;;;;13045739;22;20376;-91
2023/04/15 13:08:53;;;;;;;2.40;1.65;;;;;;;;;;13055939;22;21025;-90
2023/04/15 13:13:55;;;;;;;2.33;1.40;;;;;;;;;;13046403;22;20442;-89
2023/04/15 13:18:59;;;;;;;1.40;1.00;;;;;;;;;;13047136;22;20377;-88
2023/04/15 13:24:00;;;;;;;2.13;1.27;;;;;;;;;;13046557;22;20391;-89
2023/04/15 13:29:02;;;;;;;1.83;1.13;;;;;;;;;;13045567;22;20381;-89
2023/04/15 13:34:05;;;;;;;1.77;1.17;;;;;;;;;;13046267;22;20361;-90
2023/04/15 13:39:08;;;;;;;2.17;1.10;;;;;;;;;;13046802;22;20369;-88
2023/04/15 13:44:11;;;;;;;2.35;1.05;;;;;;;;;;13049752;22;20725;-89
2023/04/15 13:49:14;;;;;;;2.70;1.30;;;;;;;;;;13047082;22;20365;-87
2023/04/15 13:54:16;;;;;;;2.13;1.58;;;;;;;;;;13046803;22;20400;-89
2023/04/15 13:59:18;;;;;;;3.55;1.40;;;;;;;;;;13045515;22;20380;-89
2023/04/15 14:04:21;;;;;;;3.20;1.30;;;;;;;;;;13046324;22;20381;-88
2023/04/15 14:09:23;;;;;;;1.80;1.10;;;;;;;;;;13045254;22;20753;-89
2023/04/15 14:14:24;;;;;;;4.87;1.53;;;;;;;;;;13045564;22;20360;-90
2023/04/15 14:19:28;;;;;;;1.67;1.30;;;;;;;;;;13054957;22;20448;-89
2023/04/15 14:24:30;;;;;;;4.43;1.50;;;;;;;;;;13045466;22;20387;-89
2023/04/15 14:29:31;;;;;;;4.78;1.67;;;;;;;;;;13046407;22;20410;-88
2023/04/15 14:34:35;;;;;;;2.72;1.27;;;;;;;;;;13046287;22;20402;-89
2023/04/15 14:39:36;;;;;;;1.80;1.33;;;;;;;;;;13047717;22;20418;-90
2023/04/15 14:44:38;;;;;;;6.55;1.40;;;;;;;;;;13048177;22;20384;-89
2023/04/15 14:49:41;;;;;;;6.22;1.63;;;;;;;;;;13047973;22;20383;-81
2023/04/15 14:54:43;;;;;;;4.65;1.30;;;;;;;;;;13045622;22;20361;-82
2023/04/15 14:59:45;;;;;;;3.53;1.30;;;;;;;;;;13046663;22;20388;-82
2023/04/15 15:04:48;;;;;;;4.47;1.10;;;;;;;;;;13045433;22;20380;-82
2023/04/15 15:09:50;;;;;;;5.30;1.60;;;;;;;;;;13044355;22;20943;-83
2023/04/15 15:14:52;;;;;;;4.00;1.25;;;;;;;;;;13045826;22;20360;-82
2023/04/15 15:19:55;;;;;;;2.50;1.30;;;;;;;;;;13045628;22;20877;-83
2023/04/15 15:24:58;;;;;;;3.10;1.13;;;;;;;;;;13036726;22;20541;-83
2023/04/15 15:29:59;;;;;;;3.42;1.35;;;;;;;;;;13035288;22;20628;-83
2023/04/15 15:35:03;;;;;;;3.55;1.30;;;;;;;;;;13032752;22;20373;-83
2023/04/15 15:40:05;;;;;;;2.88;1.48;;;;;;;;;;13035116;22;20376;-82
2023/04/15 15:45:08;;;;;;;3.28;1.23;;;;;;;;;;13035261;22;20865;-82
2023/04/15 15:50:13;;;;;;;1.38;1.00;;;;;;;;;;13035363;22;20357;-81
2023/04/15 15:55:15;;;;;;;2.90;1.47;;;;;;;;;;13034035;22;20360;-82
2023/04/15 16:00:17;;;;;;;2.63;1.30;;;;;;;;;;13039537;22;20364;-83
2023/04/15 16:05:20;;;;;;;1.23;1.00;;;;;;;;;;13042094;22;20416;-84
2023/04/15 16:10:22;;;;;;;2.35;0.90;;;;;;;;;;13040130;22;20385;-83
2023/04/15 16:15:25;;;;;;;2.60;0.90;;;;;;;;;;13040936;22;20441;-84
2023/04/15 16:20:33;;;;;;;4.22;1.10;;;;;;;;;;13039662;22;20396;-84
2023/04/15 16:25:35;;;;;;;3.33;1.20;;;;;;;;;;13037140;22;20412;-83
2023/04/15 16:30:37;;;;;;;2.60;1.30;;;;;;;;;;13041422;22;20357;-83
2023/04/15 16:35:40;;;;;;;3.23;1.40;;;;;;;;;;13041519;22;20365;-83
2023/04/15 16:40:42;;;;;;;4.28;1.52;;;;;;;;;;13041709;22;20353;-83
2023/04/15 16:45:49;;;;;;;2.83;1.43;;;;;;;;;;13041256;22;20377;-83
2023/04/15 16:50:52;;;;;;;2.65;1.13;;;;;;;;;;13042226;22;20364;-83
2023/04/15 16:55:54;;;;;;;3.70;1.33;;;;;;;;;;13042323;22;20388;-83
2023/04/15 17:00:56;;;;;;;2.13;1.00;;;;;;;;;;13043052;22;20713;-83
2023/04/15 17:06:00;;;;;;;3.67;1.00;;;;;;;;;;13040423;22;20416;-83
2023/04/15 17:11:02;;;;;;;2.93;1.10;;;;;;;;;;13042336;22;20441;-83
2023/04/15 17:16:04;;;;;;;3.40;1.20;;;;;;;;;;13041628;22;20755;-83
2023/04/15 17:21:07;;;;;;;2.10;1.10;;;;;;;;;;13039389;22;20380;-82
2023/04/15 17:26:09;;;;;;;3.15;1.20;;;;;;;;;;13040271;22;20789;-83
2023/04/15 17:31:11;;;;;;;1.85;1.30;;;;;;;;;;13041308;22;20414;-82
2023/04/15 17:36:14;;;;;;;2.53;1.27;;;;;;;;;;13038949;22;20736;-83
2023/04/15 17:41:16;;;;;;;3.10;1.50;;;;;;;;;;13027811;22;20373;-83
2023/04/15 17:46:18;;;;;;;1.90;1.20;;;;;;;;;;13033772;22;20460;-83
2023/04/15 17:51:21;;;;;;;3.58;2.20;;;;;;;;;;13036399;22;20364;-83
2023/04/15 17:56:23;;;;;;;8.40;4.43;;;;;;;;;;13031762;22;20935;-83
2023/04/15 18:01:25;;;;;;;7.70;4.35;;;;;;;;;;13033296;22;20781;-83
2023/04/15 18:06:29;;;;;;;6.60;3.50;;;;;;;;;;13033800;22;20997;-83
2023/04/15 18:11:33;;;;;;;3.67;2.28;;;;;;;;;;13033125;22;20387;-80
2023/04/15 18:16:35;;;;;;;3.42;2.30;;;;;;;;;;13034028;22;20369;-85
2023/04/15 18:21:38;;;;;;;7.00;3.70;;;;;;;;;;13033625;22;20760;-85
2023/04/15 18:26:52;;;;;;;6.10;3.27;;;;;;;;;;13028845;22;20427;-85
2023/04/15 18:31:54;;;;;;;7.43;3.38;;;;;;;;;;13030247;22;20426;-84
2023/04/15 18:36:58;;;;;;;5.70;3.20;;;;;;;;;;13030622;22;20439;-84
2023/04/15 18:42:00;;;;;;;4.45;2.80;;;;;;;;;;13028627;22;20752;-85
2023/04/15 18:47:27;;;;;;;7.30;2.97;;;;;;;;;;13023372;22;20385;-84
2023/04/15 18:52:32;;;;;;;6.20;2.70;;;;;;;;;;13029166;22;21135;-85
2023/04/15 18:57:34;;;;;;;5.77;3.13;;;;;;;;;;13027390;22;20887;-85
2023/04/15 19:02:36;;;;;;;4.43;2.60;;;;;;;;;;13025565;22;20368;-85
2023/04/15 19:07:40;;;;;;;4.85;2.75;;;;;;;;;;13026090;22;20389;-85
2023/04/15 19:12:41;;;;;;;4.10;2.35;;;;;;;;;;13029695;22;20384;-84
2023/04/15 19:17:43;;;;;;;5.80;3.10;;;;;;;;;;13034092;22;20387;-85
2023/04/15 19:22:50;;;;;;;5.03;3.10;;;;;;;;;;13030818;22;21032;-85
2023/04/15 19:27:52;;;;;;;4.28;2.50;;;;;;;;;;13033311;22;20399;-85
2023/04/15 19:32:54;;;;;;;5.15;3.20;;;;;;;;;;13034154;22;20376;-86
2023/04/15 19:37:57;;;;;;;6.45;3.10;;;;;;;;;;13033779;22;20488;-85
2023/04/15 19:42:59;;;;;;;4.57;2.35;;;;;;;;;;13034101;22;20464;-86
2023/04/15 19:48:01;;;;;;;4.55;2.42;;;;;;;;;;13033973;22;20460;-85
2023/04/15 19:53:04;;;;;;;4.30;1.73;;;;;;;;;;13033656;22;20380;-85
2023/04/15 19:58:06;;;;;;;2.07;1.50;;;;;;;;;;13033706;22;20689;-86
2023/04/15 20:03:08;;;;;;;2.50;1.55;;;;;;;;;;13034776;22;20410;-85
2023/04/15 20:08:11;;;;;;;2.70;2.00;;;;;;;;;;13033598;22;20427;-85
2023/04/15 20:13:13;;;;;;;2.63;1.83;;;;;;;;;;13033654;22;20784;-85
2023/04/15 20:18:15;;;;;;;4.05;2.30;;;;;;;;;;13033887;22;20381;-85
2023/04/15 20:23:18;;;;;;;3.63;2.40;;;;;;;;;;13032582;22;20404;-86
2023/04/15 20:28:22;;;;;;;3.47;2.47;;;;;;;;;;13032526;22;20877;-85
2023/04/15 20:33:24;;;;;;;4.00;2.85;;;;;;;;;;13033927;22;20365;-85
2023/04/15 20:38:27;;;;;;;5.17;3.10;;;;;;;;;;13032625;22;20438;-86
2023/04/15 20:43:29;;;;;;;4.45;2.65;;;;;;;;;;13032681;22;20384;-86
2023/04/15 20:48:31;;;;;;;3.85;2.80;;;;;;;;;;13033044;22;20391;-85
2023/04/15 20:53:35;;;;;;;3.20;2.13;;;;;;;;;;13032534;22;20407;-85
2023/04/15 20:58:37;;;;;;;3.50;2.20;;;;;;;;;;13033350;22;20365;-85
2023/04/15 21:03:39;;;;;;;3.97;1.98;;;;;;;;;;13030838;22;20372;-85
2023/04/15 21:08:42;;;;;;;3.53;2.05;;;;;;;;;;13031480;22;20391;-85
2023/04/15 21:13:45;;;;;;;3.85;2.15;;;;;;;;;;13031821;22;20369;-85
2023/04/15 21:18:47;;;;;;;2.93;2.20;;;;;;;;;;13031872;22;20364;-85
2023/04/15 21:23:50;;;;;;;4.38;2.00;;;;;;;;;;13031190;22;20768;-85
2023/04/15 21:28:52;;;;;;;3.75;2.50;;;;;;;;;;13031386;22;20416;-85
2023/04/15 21:33:54;;;;;;;3.73;2.80;;;;;;;;;;13031938;22;20863;-85
2023/04/15 21:38:57;;;;;;;4.57;3.28;;;;;;;;;;13031672;22;20385;-85
2023/04/15 21:43:59;;;;;;;3.35;3.00;;;;;;;;;;13031495;22;20369;-85
2023/04/15 21:49:01;;;;;;;5.15;3.22;;;;;;;;;;13032134;22;20767;-85
2023/04/15 21:54:04;;;;;;;5.80;3.28;;;;;;;;;;13031977;22;20418;-85
2023/04/15 21:59:06;;;;;;;7.00;3.50;;;;;;;;;;13031730;22;20370;-85
2023/04/15 22:04:09;;;;;;;4.60;3.00;;;;;;;;;;13030640;22;20455;-84
2023/04/15 22:09:12;;;;;;;3.45;2.55;;;;;;;;;;13030945;22;20475;-85
2023/04/15 22:14:16;;;;;;;5.93;2.55;;;;;;;;;;13034825;22;20369;-85
2023/04/15 22:19:18;;;;;;;4.28;2.47;;;;;;;;;;13040298;22;20926;-85
2023/04/15 22:24:21;;;;;;;3.97;2.67;;;;;;;;;;13041221;22;20353;-85
2023/04/15 22:29:23;;;;;;;4.32;2.70;;;;;;;;;;13041010;22;20373;-85
2023/04/15 22:34:25;;;;;;;3.70;2.85;;;;;;;;;;13041898;22;20441;-85
2023/04/15 22:39:28;;;;;;;4.55;2.80;;;;;;;;;;13041333;22;21202;-85
2023/04/15 22:44:30;;;;;;;3.70;2.88;;;;;;;;;;13041130;22;20357;-85
2023/04/15 22:49:33;;;;;;;5.00;2.77;;;;;;;;;;13038482;22;20769;-85
2023/04/15 22:54:37;;;;;;;3.97;2.80;;;;;;;;;;13044619;22;20369;-85
2023/04/15 22:59:40;;;;;;;6.60;2.88;;;;;;;;;;13045654;22;20361;-85
2023/04/15 23:04:42;;;;;;;4.35;2.85;;;;;;;;;;13045093;22;20372;-86
2023/04/15 23:09:45;;;;;;;4.95;2.75;;;;;;;;;;13042307;22;20361;-85
2023/04/15 23:14:47;;;;;;;5.67;2.97;;;;;;;;;;13045188;22;20388;-85
2023/04/15 23:19:48;;;;;;;4.57;2.90;;;;;;;;;;13044993;22;20375;-84
2023/04/15 23:24:52;;;;;;;4.40;3.30;;;;;;;;;;13043593;22;20377;-86
2023/04/15 23:29:54;;;;;;;4.63;3.08;;;;;;;;;;13044217;22;20686;-86
2023/04/15 23:34:55;;;;;;;3.92;2.80;;;;;;;;;;13046590;22;20356;-85
2023/04/15 23:39:59;;;;;;;5.40;3.20;;;;;;;;;;13043229;22;20365;-85
2023/04/15 23:45:01;;;;;;;4.63;3.40;;;;;;;;;;13045375;22;20643;-85
2023/04/15 23:50:03;;;;;;;5.83;3.80;;;;;;;;;;13045300;22;20749;-85
2023/04/15 23:55:09;;;;;;;5.35;3.45;;;;;;;;;;13044446;22;20400;-85
